sensor_id;sensor_type;location;lat;lon;timestamp;P1;durP1;ratioP1;P2;durP2;ratioP2
65463;SDS011;52063;45.110;9.870;2023-12-20T00:01:02;9.60;;;7.57;;
65463;SDS011;52063;45.110;9.870;2023-12-20T00:03:28;13.57;;;8.37;;
65463;SDS011;52063;45.110;9.870;2023-12-20T00:05:54;10.17;;;7.57;;
65463;SDS011;52063;45.110;9.870;2023-12-20T00:08:19;10.20;;;7.88;;
65463;SDS011;52063;45.110;9.870;2023-12-20T00:10:45;9.67;;;8.00;;
65463;SDS011;52063;45.110;9.870;2023-12-20T00:13:10;11.83;;;7.90;;
65463;SDS011;52063;45.110;9.870;2023-12-20T00:15:36;10.00;;;8.38;;
65463;SDS011;52063;45.110;9.870;2023-12-20T00:18:01;9.47;;;7.37;;
65463;SDS011;52063;45.110;9.870;2023-12-20T00:20:27;11.43;;;7.97;;
65463;SDS011;52063;45.110;9.870;2023-12-20T00:22:55;10.38;;;7.75;;
65463;SDS011;52063;45.110;9.870;2023-12-20T00:25:21;9.57;;;8.10;;
65463;SDS011;52063;45.110;9.870;2023-12-20T00:27:47;10.73;;;8.02;;
65463;SDS011;52063;45.110;9.870;2023-12-20T00:30:12;8.20;;;7.30;;
65463;SDS011;52063;45.110;9.870;2023-12-20T00:32:38;10.45;;;7.63;;
65463;SDS011;52063;45.110;9.870;2023-12-20T00:35:03;10.27;;;7.90;;
65463;SDS011;52063;45.110;9.870;2023-12-20T00:37:29;9.38;;;7.72;;
65463;SDS011;52063;45.110;9.870;2023-12-20T00:39:55;10.70;;;7.97;;
65463;SDS011;52063;45.110;9.870;2023-12-20T00:42:20;10.10;;;8.00;;
65463;SDS011;52063;45.110;9.870;2023-12-20T00:44:46;10.63;;;7.57;;
65463;SDS011;52063;45.110;9.870;2023-12-20T00:47:11;8.85;;;7.05;;
65463;SDS011;52063;45.110;9.870;2023-12-20T00:49:37;11.83;;;7.90;;
65463;SDS011;52063;45.110;9.870;2023-12-20T00:52:02;9.13;;;7.37;;
65463;SDS011;52063;45.110;9.870;2023-12-20T00:54:28;11.25;;;7.90;;
65463;SDS011;52063;45.110;9.870;2023-12-20T00:56:54;9.00;;;7.23;;
65463;SDS011;52063;45.110;9.870;2023-12-20T00:59:20;9.30;;;7.60;;
65463;SDS011;52063;45.110;9.870;2023-12-20T01:01:45;8.63;;;7.27;;
65463;SDS011;52063;45.110;9.870;2023-12-20T01:04:11;8.70;;;7.50;;
65463;SDS011;52063;45.110;9.870;2023-12-20T01:06:36;9.80;;;7.50;;
65463;SDS011;52063;45.110;9.870;2023-12-20T01:09:02;9.93;;;8.40;;
65463;SDS011;52063;45.110;9.870;2023-12-20T01:11:28;9.93;;;8.45;;
65463;SDS011;52063;45.110;9.870;2023-12-20T01:13:53;9.50;;;7.47;;
65463;SDS011;52063;45.110;9.870;2023-12-20T01:16:18;11.60;;;7.50;;
65463;SDS011;52063;45.110;9.870;2023-12-20T01:18:44;9.63;;;7.60;;
65463;SDS011;52063;45.110;9.870;2023-12-20T01:21:10;8.43;;;6.93;;
65463;SDS011;52063;45.110;9.870;2023-12-20T01:23:35;8.93;;;7.50;;
65463;SDS011;52063;45.110;9.870;2023-12-20T01:26:01;9.02;;;7.53;;
65463;SDS011;52063;45.110;9.870;2023-12-20T01:28:27;10.30;;;6.80;;
65463;SDS011;52063;45.110;9.870;2023-12-20T01:30:53;8.88;;;7.22;;
65463;SDS011;52063;45.110;9.870;2023-12-20T01:33:18;8.47;;;7.43;;
65463;SDS011;52063;45.110;9.870;2023-12-20T01:35:44;10.43;;;7.40;;
65463;SDS011;52063;45.110;9.870;2023-12-20T01:38:09;9.77;;;7.60;;
65463;SDS011;52063;45.110;9.870;2023-12-20T01:40:35;10.60;;;7.13;;
65463;SDS011;52063;45.110;9.870;2023-12-20T01:43:01;9.30;;;7.30;;
65463;SDS011;52063;45.110;9.870;2023-12-20T01:45:27;9.85;;;7.53;;
65463;SDS011;52063;45.110;9.870;2023-12-20T01:47:53;8.37;;;6.60;;
65463;SDS011;52063;45.110;9.870;2023-12-20T01:50:20;8.57;;;6.93;;
65463;SDS011;52063;45.110;9.870;2023-12-20T01:52:46;9.32;;;7.45;;
65463;SDS011;52063;45.110;9.870;2023-12-20T01:55:11;8.83;;;7.30;;
65463;SDS011;52063;45.110;9.870;2023-12-20T01:57:40;8.25;;;7.30;;
65463;SDS011;52063;45.110;9.870;2023-12-20T02:00:06;10.30;;;7.50;;
65463;SDS011;52063;45.110;9.870;2023-12-20T02:02:34;7.55;;;6.85;;
65463;SDS011;52063;45.110;9.870;2023-12-20T02:05:02;8.77;;;7.38;;
65463;SDS011;52063;45.110;9.870;2023-12-20T02:07:29;8.27;;;6.83;;
65463;SDS011;52063;45.110;9.870;2023-12-20T02:09:54;7.68;;;6.68;;
65463;SDS011;52063;45.110;9.870;2023-12-20T02:12:20;8.40;;;7.20;;
65463;SDS011;52063;45.110;9.870;2023-12-20T02:14:46;11.05;;;7.50;;
65463;SDS011;52063;45.110;9.870;2023-12-20T02:17:12;8.67;;;7.10;;
65463;SDS011;52063;45.110;9.870;2023-12-20T02:19:37;8.23;;;7.00;;
65463;SDS011;52063;45.110;9.870;2023-12-20T02:22:12;8.53;;;7.17;;
65463;SDS011;52063;45.110;9.870;2023-12-20T02:24:38;7.60;;;6.78;;
65463;SDS011;52063;45.110;9.870;2023-12-20T02:27:04;11.05;;;7.32;;
65463;SDS011;52063;45.110;9.870;2023-12-20T02:29:32;8.13;;;6.75;;
65463;SDS011;52063;45.110;9.870;2023-12-20T02:31:58;8.80;;;7.23;;
65463;SDS011;52063;45.110;9.870;2023-12-20T02:34:23;9.35;;;7.10;;
65463;SDS011;52063;45.110;9.870;2023-12-20T02:36:49;9.67;;;7.07;;
65463;SDS011;52063;45.110;9.870;2023-12-20T02:39:14;7.90;;;6.77;;
65463;SDS011;52063;45.110;9.870;2023-12-20T02:41:41;8.00;;;7.20;;
65463;SDS011;52063;45.110;9.870;2023-12-20T02:44:06;10.03;;;6.97;;
65463;SDS011;52063;45.110;9.870;2023-12-20T02:46:31;8.33;;;7.00;;
65463;SDS011;52063;45.110;9.870;2023-12-20T02:48:57;8.82;;;6.75;;
65463;SDS011;52063;45.110;9.870;2023-12-20T02:51:23;7.87;;;7.07;;
65463;SDS011;52063;45.110;9.870;2023-12-20T02:53:48;8.43;;;6.87;;
65463;SDS011;52063;45.110;9.870;2023-12-20T02:56:13;8.27;;;6.90;;
65463;SDS011;52063;45.110;9.870;2023-12-20T02:58:39;9.23;;;6.80;;
65463;SDS011;52063;45.110;9.870;2023-12-20T03:01:05;8.77;;;7.13;;
65463;SDS011;52063;45.110;9.870;2023-12-20T03:03:31;8.70;;;6.80;;
65463;SDS011;52063;45.110;9.870;2023-12-20T03:05:57;7.28;;;6.57;;
65463;SDS011;52063;45.110;9.870;2023-12-20T03:08:22;7.57;;;6.43;;
65463;SDS011;52063;45.110;9.870;2023-12-20T03:10:48;8.35;;;6.53;;
65463;SDS011;52063;45.110;9.870;2023-12-20T03:13:13;7.30;;;6.30;;
65463;SDS011;52063;45.110;9.870;2023-12-20T03:15:39;7.47;;;6.68;;
65463;SDS011;52063;45.110;9.870;2023-12-20T03:18:05;15.27;;;7.13;;
65463;SDS011;52063;45.110;9.870;2023-12-20T03:20:30;8.43;;;6.90;;
65463;SDS011;52063;45.110;9.870;2023-12-20T03:22:59;8.63;;;7.03;;
65463;SDS011;52063;45.110;9.870;2023-12-20T03:25:25;8.63;;;7.10;;
65463;SDS011;52063;45.110;9.870;2023-12-20T03:27:50;7.45;;;6.60;;
65463;SDS011;52063;45.110;9.870;2023-12-20T03:30:17;8.02;;;6.93;;
65463;SDS011;52063;45.110;9.870;2023-12-20T03:32:43;7.93;;;7.00;;
65463;SDS011;52063;45.110;9.870;2023-12-20T03:35:09;7.60;;;6.60;;
65463;SDS011;52063;45.110;9.870;2023-12-20T03:37:35;7.47;;;6.67;;
65463;SDS011;52063;45.110;9.870;2023-12-20T03:40:00;8.18;;;6.60;;
65463;SDS011;52063;45.110;9.870;2023-12-20T03:42:26;6.90;;;6.20;;
65463;SDS011;52063;45.110;9.870;2023-12-20T03:44:51;6.83;;;6.13;;
65463;SDS011;52063;45.110;9.870;2023-12-20T03:47:17;8.00;;;6.47;;
65463;SDS011;52063;45.110;9.870;2023-12-20T03:49:42;7.65;;;6.63;;
65463;SDS011;52063;45.110;9.870;2023-12-20T03:52:08;9.20;;;6.90;;
65463;SDS011;52063;45.110;9.870;2023-12-20T03:54:35;7.07;;;6.37;;
65463;SDS011;52063;45.110;9.870;2023-12-20T03:57:01;8.23;;;6.35;;
65463;SDS011;52063;45.110;9.870;2023-12-20T03:59:26;7.15;;;6.07;;
65463;SDS011;52063;45.110;9.870;2023-12-20T04:01:52;6.37;;;5.77;;
65463;SDS011;52063;45.110;9.870;2023-12-20T04:04:17;7.40;;;6.13;;
65463;SDS011;52063;45.110;9.870;2023-12-20T04:06:43;8.40;;;6.50;;
65463;SDS011;52063;45.110;9.870;2023-12-20T04:09:08;7.20;;;6.47;;
65463;SDS011;52063;45.110;9.870;2023-12-20T04:11:34;9.00;;;6.75;;
65463;SDS011;52063;45.110;9.870;2023-12-20T04:14:00;10.97;;;6.20;;
65463;SDS011;52063;45.110;9.870;2023-12-20T04:16:26;7.38;;;6.55;;
65463;SDS011;52063;45.110;9.870;2023-12-20T04:18:51;10.10;;;6.53;;
65463;SDS011;52063;45.110;9.870;2023-12-20T04:21:17;9.45;;;6.57;;
65463;SDS011;52063;45.110;9.870;2023-12-20T04:23:43;7.18;;;6.10;;
65463;SDS011;52063;45.110;9.870;2023-12-20T04:26:09;7.57;;;6.00;;
65463;SDS011;52063;45.110;9.870;2023-12-20T04:28:34;7.25;;;6.55;;
65463;SDS011;52063;45.110;9.870;2023-12-20T04:31:00;7.97;;;6.30;;
65463;SDS011;52063;45.110;9.870;2023-12-20T04:33:25;8.38;;;6.22;;
65463;SDS011;52063;45.110;9.870;2023-12-20T04:35:51;9.43;;;6.23;;
65463;SDS011;52063;45.110;9.870;2023-12-20T04:38:16;7.33;;;6.20;;
65463;SDS011;52063;45.110;9.870;2023-12-20T04:40:42;6.87;;;6.17;;
65463;SDS011;52063;45.110;9.870;2023-12-20T04:43:07;7.15;;;6.40;;
65463;SDS011;52063;45.110;9.870;2023-12-20T04:45:34;7.73;;;5.90;;
65463;SDS011;52063;45.110;9.870;2023-12-20T04:47:59;8.30;;;6.07;;
65463;SDS011;52063;45.110;9.870;2023-12-20T04:50:26;7.85;;;6.32;;
65463;SDS011;52063;45.110;9.870;2023-12-20T04:52:51;7.57;;;6.63;;
65463;SDS011;52063;45.110;9.870;2023-12-20T04:55:17;7.05;;;5.95;;
65463;SDS011;52063;45.110;9.870;2023-12-20T04:57:42;6.57;;;5.87;;
65463;SDS011;52063;45.110;9.870;2023-12-20T05:00:08;9.10;;;6.30;;
65463;SDS011;52063;45.110;9.870;2023-12-20T05:02:37;6.75;;;5.95;;
65463;SDS011;52063;45.110;9.870;2023-12-20T05:05:02;6.35;;;5.65;;
65463;SDS011;52063;45.110;9.870;2023-12-20T05:07:28;7.10;;;6.20;;
65463;SDS011;52063;45.110;9.870;2023-12-20T05:09:54;9.15;;;6.78;;
65463;SDS011;52063;45.110;9.870;2023-12-20T05:12:19;6.67;;;5.83;;
65463;SDS011;52063;45.110;9.870;2023-12-20T05:14:45;7.03;;;5.83;;
65463;SDS011;52063;45.110;9.870;2023-12-20T05:17:11;7.32;;;6.30;;
65463;SDS011;52063;45.110;9.870;2023-12-20T05:19:37;7.78;;;6.20;;
65463;SDS011;52063;45.110;9.870;2023-12-20T05:22:02;6.30;;;5.70;;
65463;SDS011;52063;45.110;9.870;2023-12-20T05:24:28;7.97;;;6.10;;
65463;SDS011;52063;45.110;9.870;2023-12-20T05:26:53;6.82;;;6.13;;
65463;SDS011;52063;45.110;9.870;2023-12-20T05:29:19;6.47;;;5.70;;
65463;SDS011;52063;45.110;9.870;2023-12-20T05:31:44;9.30;;;7.10;;
65463;SDS011;52063;45.110;9.870;2023-12-20T05:34:10;7.07;;;6.38;;
65463;SDS011;52063;45.110;9.870;2023-12-20T05:36:36;7.13;;;6.40;;
65463;SDS011;52063;45.110;9.870;2023-12-20T05:39:01;6.05;;;5.45;;
65463;SDS011;52063;45.110;9.870;2023-12-20T05:41:28;6.53;;;5.75;;
65463;SDS011;52063;45.110;9.870;2023-12-20T05:43:54;7.50;;;6.00;;
65463;SDS011;52063;45.110;9.870;2023-12-20T05:46:19;6.80;;;6.10;;
65463;SDS011;52063;45.110;9.870;2023-12-20T05:48:46;8.27;;;6.00;;
65463;SDS011;52063;45.110;9.870;2023-12-20T05:51:12;6.83;;;5.60;;
65463;SDS011;52063;45.110;9.870;2023-12-20T05:53:38;7.07;;;5.55;;
65463;SDS011;52063;45.110;9.870;2023-12-20T05:56:04;6.40;;;5.80;;
65463;SDS011;52063;45.110;9.870;2023-12-20T05:58:29;9.80;;;6.40;;
65463;SDS011;52063;45.110;9.870;2023-12-20T06:00:55;8.03;;;6.40;;
65463;SDS011;52063;45.110;9.870;2023-12-20T06:03:20;6.27;;;5.63;;
65463;SDS011;52063;45.110;9.870;2023-12-20T06:05:46;7.77;;;5.90;;
65463;SDS011;52063;45.110;9.870;2023-12-20T06:08:11;7.07;;;5.60;;
65463;SDS011;52063;45.110;9.870;2023-12-20T06:10:37;6.10;;;5.50;;
65463;SDS011;52063;45.110;9.870;2023-12-20T06:13:03;6.35;;;5.47;;
65463;SDS011;52063;45.110;9.870;2023-12-20T06:15:29;10.07;;;6.07;;
65463;SDS011;52063;45.110;9.870;2023-12-20T06:17:55;6.43;;;5.80;;
65463;SDS011;52063;45.110;9.870;2023-12-20T06:20:20;6.37;;;5.77;;
65463;SDS011;52063;45.110;9.870;2023-12-20T06:22:46;6.18;;;5.57;;
65463;SDS011;52063;45.110;9.870;2023-12-20T06:25:12;5.80;;;5.20;;
65463;SDS011;52063;45.110;9.870;2023-12-20T06:27:37;6.00;;;5.40;;
65463;SDS011;52063;45.110;9.870;2023-12-20T06:30:03;6.68;;;5.68;;
65463;SDS011;52063;45.110;9.870;2023-12-20T06:32:29;8.88;;;6.00;;
65463;SDS011;52063;45.110;9.870;2023-12-20T06:34:54;5.97;;;5.27;;
65463;SDS011;52063;45.110;9.870;2023-12-20T06:37:20;7.40;;;5.80;;
65463;SDS011;52063;45.110;9.870;2023-12-20T06:39:45;6.68;;;5.80;;
65463;SDS011;52063;45.110;9.870;2023-12-20T06:42:12;6.17;;;5.57;;
65463;SDS011;52063;45.110;9.870;2023-12-20T06:44:38;6.15;;;5.55;;
65463;SDS011;52063;45.110;9.870;2023-12-20T06:47:04;6.47;;;5.78;;
65463;SDS011;52063;45.110;9.870;2023-12-20T06:49:29;6.32;;;5.70;;
65463;SDS011;52063;45.110;9.870;2023-12-20T06:51:55;7.67;;;5.87;;
65463;SDS011;52063;45.110;9.870;2023-12-20T06:54:20;7.70;;;6.30;;
65463;SDS011;52063;45.110;9.870;2023-12-20T06:56:46;7.32;;;6.40;;
65463;SDS011;52063;45.110;9.870;2023-12-20T06:59:11;6.93;;;5.93;;
65463;SDS011;52063;45.110;9.870;2023-12-20T07:01:37;8.80;;;5.80;;
65463;SDS011;52063;45.110;9.870;2023-12-20T07:04:03;8.15;;;6.57;;
65463;SDS011;52063;45.110;9.870;2023-12-20T07:06:28;8.45;;;6.95;;
65463;SDS011;52063;45.110;9.870;2023-12-20T07:08:54;10.10;;;8.20;;
65463;SDS011;52063;45.110;9.870;2023-12-20T07:11:19;13.37;;;9.50;;
65463;SDS011;52063;45.110;9.870;2023-12-20T07:13:45;19.17;;;11.07;;
65463;SDS011;52063;45.110;9.870;2023-12-20T07:16:10;23.27;;;13.23;;
65463;SDS011;52063;45.110;9.870;2023-12-20T07:18:36;21.17;;;14.83;;
65463;SDS011;52063;45.110;9.870;2023-12-20T07:21:02;21.58;;;13.82;;
65463;SDS011;52063;45.110;9.870;2023-12-20T07:23:28;19.30;;;13.02;;
65463;SDS011;52063;45.110;9.870;2023-12-20T07:25:54;18.33;;;12.03;;
65463;SDS011;52063;45.110;9.870;2023-12-20T07:28:20;19.73;;;13.30;;
65463;SDS011;52063;45.110;9.870;2023-12-20T07:30:45;20.93;;;14.20;;
65463;SDS011;52063;45.110;9.870;2023-12-20T07:33:11;22.23;;;14.20;;
65463;SDS011;52063;45.110;9.870;2023-12-20T07:35:37;20.73;;;13.57;;
65463;SDS011;52063;45.110;9.870;2023-12-20T07:38:03;21.52;;;14.23;;
65463;SDS011;52063;45.110;9.870;2023-12-20T07:40:28;24.53;;;14.33;;
65463;SDS011;52063;45.110;9.870;2023-12-20T07:42:54;21.95;;;13.65;;
65463;SDS011;52063;45.110;9.870;2023-12-20T07:45:20;19.50;;;13.27;;
65463;SDS011;52063;45.110;9.870;2023-12-20T07:47:45;19.60;;;14.07;;
65463;SDS011;52063;45.110;9.870;2023-12-20T07:50:11;16.38;;;11.77;;
65463;SDS011;52063;45.110;9.870;2023-12-20T07:52:36;16.97;;;12.20;;
65463;SDS011;52063;45.110;9.870;2023-12-20T07:55:02;16.90;;;12.17;;
65463;SDS011;52063;45.110;9.870;2023-12-20T07:57:31;17.25;;;12.23;;
65463;SDS011;52063;45.110;9.870;2023-12-20T07:59:56;15.23;;;12.15;;
65463;SDS011;52063;45.110;9.870;2023-12-20T08:02:22;20.77;;;12.17;;
65463;SDS011;52063;45.110;9.870;2023-12-20T08:04:47;19.25;;;12.82;;
65463;SDS011;52063;45.110;9.870;2023-12-20T08:07:13;17.13;;;13.00;;
65463;SDS011;52063;45.110;9.870;2023-12-20T08:09:38;17.57;;;13.20;;
65463;SDS011;52063;45.110;9.870;2023-12-20T08:12:04;16.30;;;12.80;;
65463;SDS011;52063;45.110;9.870;2023-12-20T08:14:29;16.50;;;11.60;;
65463;SDS011;52063;45.110;9.870;2023-12-20T08:16:55;17.57;;;12.10;;
65463;SDS011;52063;45.110;9.870;2023-12-20T08:19:20;16.60;;;11.83;;
65463;SDS011;52063;45.110;9.870;2023-12-20T08:21:46;15.50;;;11.47;;
65463;SDS011;52063;45.110;9.870;2023-12-20T08:24:11;17.47;;;11.97;;
65463;SDS011;52063;45.110;9.870;2023-12-20T08:26:36;16.57;;;11.83;;
65463;SDS011;52063;45.110;9.870;2023-12-20T08:29:02;15.55;;;12.32;;
65463;SDS011;52063;45.110;9.870;2023-12-20T08:31:27;15.57;;;11.70;;
65463;SDS011;52063;45.110;9.870;2023-12-20T08:33:53;18.10;;;12.73;;
65463;SDS011;52063;45.110;9.870;2023-12-20T08:36:19;17.38;;;12.60;;
65463;SDS011;52063;45.110;9.870;2023-12-20T08:38:46;15.80;;;11.93;;
65463;SDS011;52063;45.110;9.870;2023-12-20T08:41:12;17.13;;;11.60;;
65463;SDS011;52063;45.110;9.870;2023-12-20T08:43:38;18.65;;;13.88;;
65463;SDS011;52063;45.110;9.870;2023-12-20T08:46:05;25.27;;;14.77;;
65463;SDS011;52063;45.110;9.870;2023-12-20T08:48:31;19.70;;;13.27;;
65463;SDS011;52063;45.110;9.870;2023-12-20T08:50:56;16.58;;;12.90;;
65463;SDS011;52063;45.110;9.870;2023-12-20T08:53:22;19.00;;;12.90;;
65463;SDS011;52063;45.110;9.870;2023-12-20T08:55:47;21.60;;;12.97;;
65463;SDS011;52063;45.110;9.870;2023-12-20T08:58:13;21.52;;;14.70;;
65463;SDS011;52063;45.110;9.870;2023-12-20T09:00:39;23.10;;;14.37;;
65463;SDS011;52063;45.110;9.870;2023-12-20T09:03:05;19.80;;;12.98;;
65463;SDS011;52063;45.110;9.870;2023-12-20T09:05:30;19.37;;;12.93;;
65463;SDS011;52063;45.110;9.870;2023-12-20T09:07:56;16.88;;;13.30;;
65463;SDS011;52063;45.110;9.870;2023-12-20T09:10:21;15.27;;;11.43;;
65463;SDS011;52063;45.110;9.870;2023-12-20T09:12:50;15.80;;;11.95;;
65463;SDS011;52063;45.110;9.870;2023-12-20T09:15:18;17.67;;;12.25;;
65463;SDS011;52063;45.110;9.870;2023-12-20T09:17:44;17.37;;;12.20;;
65463;SDS011;52063;45.110;9.870;2023-12-20T09:20:09;23.87;;;16.20;;
65463;SDS011;52063;45.110;9.870;2023-12-20T09:22:36;26.42;;;18.90;;
65463;SDS011;52063;45.110;9.870;2023-12-20T09:25:03;18.58;;;13.82;;
65463;SDS011;52063;45.110;9.870;2023-12-20T09:27:29;18.85;;;12.93;;
65463;SDS011;52063;45.110;9.870;2023-12-20T09:29:55;20.87;;;12.00;;
65463;SDS011;52063;45.110;9.870;2023-12-20T09:32:20;19.10;;;12.07;;
65463;SDS011;52063;45.110;9.870;2023-12-20T09:34:47;16.00;;;11.67;;
65463;SDS011;52063;45.110;9.870;2023-12-20T09:37:13;17.55;;;11.15;;
65463;SDS011;52063;45.110;9.870;2023-12-20T09:39:38;17.92;;;10.45;;
65463;SDS011;52063;45.110;9.870;2023-12-20T09:42:04;22.73;;;11.07;;
65463;SDS011;52063;45.110;9.870;2023-12-20T09:44:31;16.75;;;11.80;;
65463;SDS011;52063;45.110;9.870;2023-12-20T09:46:59;16.33;;;10.35;;
65463;SDS011;52063;45.110;9.870;2023-12-20T09:49:27;18.23;;;10.63;;
65463;SDS011;52063;45.110;9.870;2023-12-20T09:51:53;17.08;;;10.45;;
65463;SDS011;52063;45.110;9.870;2023-12-20T09:54:19;12.93;;;10.15;;
65463;SDS011;52063;45.110;9.870;2023-12-20T09:56:46;14.93;;;10.27;;
65463;SDS011;52063;45.110;9.870;2023-12-20T09:59:12;15.83;;;10.67;;
65463;SDS011;52063;45.110;9.870;2023-12-20T10:01:38;13.80;;;10.32;;
65463;SDS011;52063;45.110;9.870;2023-12-20T10:04:05;13.50;;;9.70;;
65463;SDS011;52063;45.110;9.870;2023-12-20T10:06:35;13.63;;;9.87;;
65463;SDS011;52063;45.110;9.870;2023-12-20T10:09:01;16.73;;;10.15;;
65463;SDS011;52063;45.110;9.870;2023-12-20T10:11:27;12.57;;;9.68;;
65463;SDS011;52063;45.110;9.870;2023-12-20T10:13:58;15.67;;;9.77;;
65463;SDS011;52063;45.110;9.870;2023-12-20T10:16:24;14.80;;;9.70;;
65463;SDS011;52063;45.110;9.870;2023-12-20T10:18:50;15.48;;;9.18;;
65463;SDS011;52063;45.110;9.870;2023-12-20T10:21:18;12.73;;;9.43;;
65463;SDS011;52063;45.110;9.870;2023-12-20T10:23:43;12.90;;;9.50;;
65463;SDS011;52063;45.110;9.870;2023-12-20T10:26:09;14.23;;;9.33;;
65463;SDS011;52063;45.110;9.870;2023-12-20T10:28:34;15.07;;;9.60;;
65463;SDS011;52063;45.110;9.870;2023-12-20T10:31:02;14.55;;;9.75;;
65463;SDS011;52063;45.110;9.870;2023-12-20T10:33:28;13.77;;;9.07;;
65463;SDS011;52063;45.110;9.870;2023-12-20T10:35:55;11.82;;;8.60;;
65463;SDS011;52063;45.110;9.870;2023-12-20T10:38:21;12.27;;;9.10;;
65463;SDS011;52063;45.110;9.870;2023-12-20T10:40:47;12.80;;;9.27;;
65463;SDS011;52063;45.110;9.870;2023-12-20T10:43:12;15.98;;;9.32;;
65463;SDS011;52063;45.110;9.870;2023-12-20T10:45:41;12.38;;;9.32;;
65463;SDS011;52063;45.110;9.870;2023-12-20T10:48:09;13.17;;;8.77;;
65463;SDS011;52063;45.110;9.870;2023-12-20T10:50:37;13.50;;;9.05;;
65463;SDS011;52063;45.110;9.870;2023-12-20T10:53:06;11.60;;;8.90;;
65463;SDS011;52063;45.110;9.870;2023-12-20T10:55:32;12.85;;;8.50;;
65463;SDS011;52063;45.110;9.870;2023-12-20T10:58:01;11.35;;;8.68;;
65463;SDS011;52063;45.110;9.870;2023-12-20T11:00:30;12.47;;;8.57;;
65463;SDS011;52063;45.110;9.870;2023-12-20T11:02:57;13.38;;;8.60;;
65463;SDS011;52063;45.110;9.870;2023-12-20T11:07:52;11.67;;;8.70;;
65463;SDS011;52063;45.110;9.870;2023-12-20T11:10:49;12.07;;;9.40;;
65463;SDS011;52063;45.110;9.870;2023-12-20T11:16:07;12.27;;;8.60;;
65463;SDS011;52063;45.110;9.870;2023-12-20T11:18:33;12.17;;;8.70;;
65463;SDS011;52063;45.110;9.870;2023-12-20T11:21:02;14.05;;;9.20;;
65463;SDS011;52063;45.110;9.870;2023-12-20T11:23:30;11.17;;;8.50;;
65463;SDS011;52063;45.110;9.870;2023-12-20T11:25:56;12.35;;;8.40;;
65463;SDS011;52063;45.110;9.870;2023-12-20T11:28:25;15.18;;;8.38;;
65463;SDS011;52063;45.110;9.870;2023-12-20T11:30:55;12.82;;;7.75;;
65463;SDS011;52063;45.110;9.870;2023-12-20T11:33:32;13.45;;;8.32;;
65463;SDS011;52063;45.110;9.870;2023-12-20T11:36:01;12.33;;;7.70;;
65463;SDS011;52063;45.110;9.870;2023-12-20T11:38:35;10.10;;;7.65;;
65463;SDS011;52063;45.110;9.870;2023-12-20T11:41:02;13.90;;;8.15;;
65463;SDS011;52063;45.110;9.870;2023-12-20T11:46:01;12.52;;;8.07;;
65463;SDS011;52063;45.110;9.870;2023-12-20T11:48:28;11.33;;;7.87;;
65463;SDS011;52063;45.110;9.870;2023-12-20T11:50:53;11.55;;;7.43;;
65463;SDS011;52063;45.110;9.870;2023-12-20T11:53:19;10.70;;;8.20;;
65463;SDS011;52063;45.110;9.870;2023-12-20T11:55:47;12.52;;;7.57;;
65463;SDS011;52063;45.110;9.870;2023-12-20T11:58:14;9.40;;;7.97;;
65463;SDS011;52063;45.110;9.870;2023-12-20T12:00:41;10.63;;;7.60;;
65463;SDS011;52063;45.110;9.870;2023-12-20T12:03:06;13.75;;;8.13;;
65463;SDS011;52063;45.110;9.870;2023-12-20T12:05:32;9.63;;;7.57;;
65463;SDS011;52063;45.110;9.870;2023-12-20T12:07:58;12.98;;;7.95;;
65463;SDS011;52063;45.110;9.870;2023-12-20T12:10:23;12.40;;;7.88;;
65463;SDS011;52063;45.110;9.870;2023-12-20T12:12:49;11.63;;;8.00;;
65463;SDS011;52063;45.110;9.870;2023-12-20T12:15:15;9.47;;;7.57;;
65463;SDS011;52063;45.110;9.870;2023-12-20T12:17:40;11.93;;;7.40;;
65463;SDS011;52063;45.110;9.870;2023-12-20T12:20:06;10.10;;;7.60;;
65463;SDS011;52063;45.110;9.870;2023-12-20T12:22:33;9.43;;;7.67;;
65463;SDS011;52063;45.110;9.870;2023-12-20T12:24:59;10.25;;;7.80;;
65463;SDS011;52063;45.110;9.870;2023-12-20T12:27:26;14.00;;;7.53;;
65463;SDS011;52063;45.110;9.870;2023-12-20T12:30:02;8.63;;;6.97;;
65463;SDS011;52063;45.110;9.870;2023-12-20T12:32:29;9.57;;;7.55;;
65463;SDS011;52063;45.110;9.870;2023-12-20T12:34:54;11.70;;;7.40;;
65463;SDS011;52063;45.110;9.870;2023-12-20T12:37:20;10.07;;;7.20;;
65463;SDS011;52063;45.110;9.870;2023-12-20T12:39:48;10.10;;;7.87;;
65463;SDS011;52063;45.110;9.870;2023-12-20T12:42:14;11.60;;;7.68;;
65463;SDS011;52063;45.110;9.870;2023-12-20T12:44:40;11.23;;;7.30;;
65463;SDS011;52063;45.110;9.870;2023-12-20T12:47:05;10.02;;;7.47;;
65463;SDS011;52063;45.110;9.870;2023-12-20T12:49:31;8.17;;;7.10;;
65463;SDS011;52063;45.110;9.870;2023-12-20T12:51:57;8.38;;;6.88;;
65463;SDS011;52063;45.110;9.870;2023-12-20T12:54:23;7.47;;;6.57;;
65463;SDS011;52063;45.110;9.870;2023-12-20T12:56:49;8.75;;;6.80;;
65463;SDS011;52063;45.110;9.870;2023-12-20T12:59:15;9.20;;;7.13;;
65463;SDS011;52063;45.110;9.870;2023-12-20T13:01:41;10.27;;;6.93;;
65463;SDS011;52063;45.110;9.870;2023-12-20T13:04:07;10.93;;;6.80;;
65463;SDS011;52063;45.110;9.870;2023-12-20T13:06:36;9.63;;;6.97;;
65463;SDS011;52063;45.110;9.870;2023-12-20T13:09:03;9.95;;;7.25;;
65463;SDS011;52063;45.110;9.870;2023-12-20T13:11:30;9.30;;;7.43;;
65463;SDS011;52063;45.110;9.870;2023-12-20T13:13:56;9.32;;;7.13;;
65463;SDS011;52063;45.110;9.870;2023-12-20T13:16:23;8.20;;;6.88;;
65463;SDS011;52063;45.110;9.870;2023-12-20T13:18:49;9.95;;;7.38;;
65463;SDS011;52063;45.110;9.870;2023-12-20T13:21:15;11.10;;;7.07;;
65463;SDS011;52063;45.110;9.870;2023-12-20T13:23:41;9.00;;;6.70;;
65463;SDS011;52063;45.110;9.870;2023-12-20T13:26:07;9.97;;;7.50;;
65463;SDS011;52063;45.110;9.870;2023-12-20T13:28:32;11.15;;;7.38;;
65463;SDS011;52063;45.110;9.870;2023-12-20T13:30:58;9.27;;;7.43;;
65463;SDS011;52063;45.110;9.870;2023-12-20T13:33:23;10.37;;;7.80;;
65463;SDS011;52063;45.110;9.870;2023-12-20T13:35:49;9.73;;;7.43;;
65463;SDS011;52063;45.110;9.870;2023-12-20T13:38:14;8.20;;;7.10;;
65463;SDS011;52063;45.110;9.870;2023-12-20T13:40:40;9.57;;;6.80;;
65463;SDS011;52063;45.110;9.870;2023-12-20T13:43:05;10.13;;;7.40;;
65463;SDS011;52063;45.110;9.870;2023-12-20T13:45:31;9.87;;;7.13;;
65463;SDS011;52063;45.110;9.870;2023-12-20T13:47:56;10.45;;;7.78;;
65463;SDS011;52063;45.110;9.870;2023-12-20T13:50:22;8.53;;;6.97;;
65463;SDS011;52063;45.110;9.870;2023-12-20T13:52:47;11.63;;;7.60;;
65463;SDS011;52063;45.110;9.870;2023-12-20T13:55:13;8.82;;;6.80;;
65463;SDS011;52063;45.110;9.870;2023-12-20T13:57:38;9.70;;;7.30;;
65463;SDS011;52063;45.110;9.870;2023-12-20T14:00:05;9.27;;;6.70;;
65463;SDS011;52063;45.110;9.870;2023-12-20T14:02:32;7.90;;;6.22;;
65463;SDS011;52063;45.110;9.870;2023-12-20T14:04:58;8.97;;;6.50;;
65463;SDS011;52063;45.110;9.870;2023-12-20T14:07:23;8.53;;;6.83;;
65463;SDS011;52063;45.110;9.870;2023-12-20T14:09:49;8.63;;;6.30;;
65463;SDS011;52063;45.110;9.870;2023-12-20T14:12:14;9.57;;;7.00;;
65463;SDS011;52063;45.110;9.870;2023-12-20T14:14:40;8.17;;;6.93;;
65463;SDS011;52063;45.110;9.870;2023-12-20T14:17:05;7.88;;;6.68;;
65463;SDS011;52063;45.110;9.870;2023-12-20T14:19:31;9.00;;;6.70;;
65463;SDS011;52063;45.110;9.870;2023-12-20T14:21:57;8.40;;;6.90;;
65463;SDS011;52063;45.110;9.870;2023-12-20T14:24:26;9.70;;;6.70;;
65463;SDS011;52063;45.110;9.870;2023-12-20T14:26:52;9.10;;;7.65;;
65463;SDS011;52063;45.110;9.870;2023-12-20T14:29:18;8.83;;;6.80;;
65463;SDS011;52063;45.110;9.870;2023-12-20T14:31:43;9.13;;;6.90;;
65463;SDS011;52063;45.110;9.870;2023-12-20T14:34:09;9.43;;;7.00;;
65463;SDS011;52063;45.110;9.870;2023-12-20T14:36:34;9.23;;;6.83;;
65463;SDS011;52063;45.110;9.870;2023-12-20T14:39:00;8.15;;;6.60;;